createdAt,value
2023-03-07T00:00:21.577Z,92305.09
2023-03-07T00:01:53.208Z,92311.22
2023-03-07T00:03:24.810Z,92304.78
2023-03-07T00:04:57.024Z,92303.38
2023-03-07T00:06:28.887Z,92308.13
2023-03-07T00:08:00.479Z,92303.56
2023-03-07T00:09:32.184Z,92300.09
2023-03-07T00:11:04.291Z,92309.09
2023-03-07T00:12:35.861Z,92312.25
2023-03-07T00:14:09.340Z,92308.00
2023-03-07T00:15:40.950Z,92313.06
2023-03-07T00:17:12.425Z,92309.09
2023-03-07T00:18:44.162Z,92305.31
2023-03-07T00:20:15.801Z,92311.97
2023-03-07T00:21:47.405Z,92310.06
2023-03-07T00:23:18.953Z,92303.94
2023-03-07T00:24:50.993Z,92311.16
2023-03-07T00:26:23.006Z,92305.03
2023-03-07T00:27:54.692Z,92303.94
2023-03-07T00:29:26.671Z,92307.41
2023-03-07T00:31:05.319Z,92294.81
2023-03-07T00:32:36.987Z,92309.47
2023-03-07T00:34:08.554Z,92302.69
2023-03-07T00:35:40.496Z,92292.19
2023-03-07T00:37:12.364Z,92302.88
2023-03-07T00:38:44.826Z,92299.06
2023-03-07T00:40:16.805Z,92301.56
2023-03-07T00:41:48.402Z,92304.38
2023-03-07T00:43:20.445Z,92307.50
2023-03-07T00:44:52.358Z,92306.72
2023-03-07T00:46:24.512Z,92308.00
2023-03-07T00:47:57.471Z,92299.97
2023-03-07T00:49:29.155Z,92299.19
2023-03-07T00:51:01.224Z,92294.91
2023-03-07T00:52:33.495Z,92297.44
2023-03-07T00:54:05.039Z,92290.50
2023-03-07T00:55:36.639Z,92293.66
2023-03-07T00:57:08.260Z,92290.81
2023-03-07T00:58:39.996Z,92282.59
2023-03-07T01:00:12.021Z,92284.78
2023-03-07T01:01:43.868Z,92278.81
2023-03-07T01:03:16.242Z,92268.72
2023-03-07T01:04:48.571Z,92270.13
2023-03-07T01:06:21.486Z,92270.56
2023-03-07T01:07:53.168Z,92268.63
2023-03-07T01:09:24.904Z,92266.03
2023-03-07T01:11:00.092Z,92259.56
2023-03-07T01:12:32.152Z,92260.00
2023-03-07T01:14:04.703Z,92259.50
2023-03-07T01:15:36.596Z,92258.50
2023-03-07T01:17:08.121Z,92269.34
2023-03-07T01:18:39.580Z,92254.94
2023-03-07T01:20:11.376Z,92250.69
2023-03-07T01:21:43.260Z,92249.41
2023-03-07T01:23:15.612Z,92249.09
2023-03-07T01:24:47.629Z,92249.91
2023-03-07T01:26:20.241Z,92246.44
2023-03-07T01:27:53.051Z,92250.81
2023-03-07T01:29:24.958Z,92243.59
2023-03-07T01:30:57.348Z,92242.19
2023-03-07T01:32:28.846Z,92245.34
2023-03-07T01:34:13.121Z,92249.31
2023-03-07T01:35:45.366Z,92247.66
2023-03-07T01:37:17.012Z,92248.78
2023-03-07T01:38:49.330Z,92242.84
2023-03-07T01:40:21.455Z,92237.81
2023-03-07T01:41:53.491Z,92242.84
2023-03-07T01:43:34.592Z,92235.63
2023-03-07T01:45:29.182Z,92237.97
2023-03-07T01:47:01.703Z,92235.78
2023-03-07T01:48:33.743Z,92226.97
2023-03-07T01:50:09.536Z,92237.84
2023-03-07T01:51:42.367Z,92227.16
2023-03-07T01:53:15.980Z,92224.78
2023-03-07T01:54:51.509Z,92224.00
2023-03-07T01:56:23.395Z,92227.47
2023-03-07T01:57:54.981Z,92234.09
2023-03-07T01:59:29.151Z,92230.81
2023-03-07T02:01:00.821Z,92234.16
2023-03-07T02:02:33.113Z,92231.16
2023-03-07T02:04:18.944Z,92214.63
2023-03-07T02:05:53.902Z,92219.19
2023-03-07T02:07:25.986Z,92222.34
2023-03-07T02:08:57.494Z,92222.84
2023-03-07T02:10:29.257Z,92224.91
2023-03-07T02:12:02.121Z,92218.44
2023-03-07T02:13:34.321Z,92223.63
2023-03-07T02:15:06.554Z,92222.06
2023-03-07T02:16:40.945Z,92224.22
2023-03-07T02:18:14.120Z,92215.72
2023-03-07T02:19:54.298Z,92220.97
2023-03-07T02:21:26.266Z,92212.94
2023-03-07T02:22:58.564Z,92214.22
2023-03-07T02:24:34.844Z,92206.19
2023-03-07T02:26:07.970Z,92207.63
2023-03-07T02:27:40.125Z,92207.03
2023-03-07T02:29:12.052Z,92204.84
2023-03-07T02:30:55.456Z,92202.47
2023-03-07T02:32:27.350Z,92207.66
2023-03-07T02:33:59.942Z,92207.06
2023-03-07T02:35:31.434Z,92201.72
2023-03-07T02:37:07.976Z,92203.28
2023-03-07T02:38:40.631Z,92205.19
2023-03-07T02:40:12.849Z,92198.53
2023-03-07T02:41:44.440Z,92201.38
2023-03-07T02:43:16.325Z,92201.03
2023-03-07T02:44:48.285Z,92197.44
2023-03-07T02:46:20.871Z,92197.94
2023-03-07T02:47:52.542Z,92202.00
2023-03-07T02:49:24.595Z,92194.44
2023-03-07T02:50:56.336Z,92203.84
2023-03-07T02:52:28.803Z,92206.53
2023-03-07T02:54:00.388Z,92203.66
2023-03-07T02:55:32.412Z,92202.56
2023-03-07T02:57:04.983Z,92198.81
2023-03-07T02:58:36.849Z,92207.31
2023-03-07T03:00:12.553Z,92200.38
2023-03-07T03:01:44.375Z,92207.31
2023-03-07T03:03:16.267Z,92207.03
2023-03-07T03:04:48.407Z,92203.06
2023-03-07T03:06:20.338Z,92197.22
2023-03-07T03:07:52.380Z,92198.81
2023-03-07T03:09:24.732Z,92197.72
2023-03-07T03:10:58.329Z,92200.88
2023-03-07T03:12:30.305Z,92191.75
2023-03-07T03:14:02.202Z,92201.66
2023-03-07T03:15:33.852Z,92200.28
2023-03-07T03:17:05.819Z,92202.94
2023-03-07T03:18:38.906Z,92201.38
2023-03-07T03:20:12.190Z,92202.75
2023-03-07T03:21:44.265Z,92202.28
2023-03-07T03:23:15.879Z,92204.47
2023-03-07T03:24:48.499Z,92204.75
2023-03-07T03:26:20.166Z,92209.66
2023-03-07T03:27:52.060Z,92213.09
2023-03-07T03:29:24.394Z,92209.16
2023-03-07T03:30:59.894Z,92208.69
2023-03-07T03:32:31.811Z,92212.44
2023-03-07T03:34:05.359Z,92212.13
2023-03-07T03:35:40.162Z,92212.63
2023-03-07T03:37:12.225Z,92210.75
2023-03-07T03:38:44.431Z,92207.75
2023-03-07T03:40:17.760Z,92207.75
2023-03-07T03:41:49.340Z,92204.31
2023-03-07T03:43:21.320Z,92212.50
2023-03-07T03:44:54.872Z,92213.78
2023-03-07T03:46:27.067Z,92217.22
2023-03-07T03:47:58.669Z,92217.22
2023-03-07T03:49:30.551Z,92219.13
2023-03-07T03:51:02.672Z,92218.50
2023-03-07T03:52:35.502Z,92216.19
2023-03-07T03:54:07.186Z,92224.22
2023-03-07T03:55:38.834Z,92226.09
2023-03-07T03:57:11.080Z,92215.09
2023-03-07T03:58:42.790Z,92223.13
2023-03-07T04:00:15.723Z,92219.16
2023-03-07T04:01:48.019Z,92222.78
2023-03-07T04:03:19.668Z,92221.97
2023-03-07T04:04:51.374Z,92215.84
2023-03-07T04:06:27.134Z,92219.31
2023-03-07T04:07:59.019Z,92226.84
2023-03-07T04:09:31.846Z,92225.06
2023-03-07T04:11:05.035Z,92218.31
2023-03-07T04:12:36.774Z,92225.25
2023-03-07T04:14:09.149Z,92231.41
2023-03-07T04:15:40.958Z,92219.31
2023-03-07T04:17:12.656Z,92225.06
2023-03-07T04:18:44.897Z,92227.25
2023-03-07T04:20:18.442Z,92228.84
2023-03-07T04:21:50.000Z,92223.19
2023-03-07T04:23:22.324Z,92223.97
2023-03-07T04:24:54.215Z,92226.06
2023-03-07T04:26:26.112Z,92233.47
2023-03-07T04:27:57.704Z,92230.31
2023-03-07T04:29:32.099Z,92232.38
2023-03-07T04:31:03.886Z,92235.34
2023-03-07T04:32:35.606Z,92231.91
2023-03-07T04:34:07.484Z,92231.91
2023-03-07T04:35:39.699Z,92231.41
2023-03-07T04:37:12.137Z,92227.94
2023-03-07T04:38:44.131Z,92228.13
2023-03-07T04:40:15.957Z,92230.97
2023-03-07T04:41:47.732Z,92232.84
2023-03-07T04:43:19.311Z,92231.25
2023-03-07T04:44:50.973Z,92230.00
2023-03-07T04:46:42.980Z,92226.84
2023-03-07T05:10:55.729Z,92239.94
2023-03-07T05:12:27.685Z,92238.16
2023-03-07T05:18:37.751Z,92237.00
2023-03-07T05:20:10.991Z,92238.59
2023-03-07T05:21:44.424Z,92242.72
2023-03-07T05:25:14.278Z,92232.69
2023-03-07T05:26:46.397Z,92241.97
2023-03-07T05:28:19.458Z,92240.88
2023-03-07T05:29:51.683Z,92239.78
2023-03-07T05:31:23.675Z,92234.94
2023-03-07T05:32:55.470Z,92240.63
2023-03-07T05:34:27.133Z,92238.63
2023-03-07T05:36:01.933Z,92242.75
2023-03-07T05:37:33.634Z,92244.72
2023-03-07T05:39:05.450Z,92244.56
2023-03-07T05:40:37.035Z,92245.06
2023-03-07T05:42:08.727Z,92251.19
2023-03-07T05:43:40.269Z,92255.94
2023-03-07T05:45:12.240Z,92256.44
2023-03-07T05:46:43.935Z,92252.19
2023-03-07T05:48:15.905Z,92252.81
2023-03-07T05:49:47.734Z,92253.50
2023-03-07T05:51:19.384Z,92255.53
2023-03-07T05:52:53.110Z,92251.47
2023-03-07T05:54:24.852Z,92252.44
2023-03-07T05:55:56.293Z,92257.03
2023-03-07T05:57:27.859Z,92255.47
2023-03-07T05:58:59.431Z,92254.91
2023-03-07T06:00:30.984Z,92261.25
2023-03-07T06:02:02.704Z,92258.44
2023-03-07T06:03:34.383Z,92255.28
2023-03-07T06:05:06.427Z,92251.22
2023-03-07T06:06:37.939Z,92254.69
2023-03-07T06:08:09.781Z,92259.00
2023-03-07T06:09:41.577Z,92261.69
2023-03-07T06:11:13.342Z,92258.84
2023-03-07T06:12:45.035Z,92258.41
2023-03-07T06:14:16.615Z,92265.97
2023-03-07T06:15:49.164Z,92265.97
2023-03-07T06:17:20.762Z,92266.88
2023-03-07T06:18:52.316Z,92255.09
2023-03-07T06:20:23.952Z,92257.81
2023-03-07T06:21:55.488Z,92251.66
2023-03-07T06:23:27.528Z,92255.75
2023-03-07T06:24:59.107Z,92252.88
2023-03-07T06:26:30.722Z,92262.97
2023-03-07T06:28:02.276Z,92267.09
2023-03-07T06:29:33.852Z,92259.66
2023-03-07T06:31:09.397Z,92257.75
2023-03-07T06:32:41.098Z,92265.94
2023-03-07T06:34:13.140Z,92257.22
2023-03-07T06:35:44.853Z,92260.38
2023-03-07T06:37:17.154Z,92254.63
2023-03-07T06:38:48.706Z,92266.59
2023-03-07T06:40:20.609Z,92270.44
2023-03-07T06:41:52.607Z,92256.34
2023-03-07T06:43:24.157Z,92263.13
2023-03-07T06:44:55.858Z,92256.66
2023-03-07T06:46:28.099Z,92256.91
2023-03-07T06:47:59.679Z,92260.38
2023-03-07T06:49:31.250Z,92257.69
2023-03-07T06:51:09.229Z,92254.69
2023-03-07T06:52:41.637Z,92257.69
2023-03-07T06:54:13.159Z,92262.91
2023-03-07T06:55:48.045Z,92259.06
2023-03-07T06:57:19.662Z,92262.41
2023-03-07T06:58:51.284Z,92262.50
2023-03-07T07:00:23.238Z,92257.75
2023-03-07T07:01:55.455Z,92254.19
2023-03-07T07:03:27.386Z,92255.91
2023-03-07T07:05:02.695Z,92256.34
2023-03-07T07:06:34.456Z,92261.22
2023-03-07T07:08:09.443Z,92261.56
2023-03-07T07:09:41.095Z,92257.53
2023-03-07T07:11:13.358Z,92254.47
2023-03-07T07:12:45.130Z,92256.22
2023-03-07T07:14:17.106Z,92252.16
2023-03-07T07:15:52.999Z,92266.13
2023-03-07T07:17:49.962Z,92259.59
2023-03-07T07:19:22.200Z,92260.78
2023-03-07T07:20:56.874Z,92253.72
2023-03-07T07:22:28.584Z,92257.97
2023-03-07T07:24:00.812Z,92259.47
2023-03-07T07:25:33.111Z,92259.25
2023-03-07T07:27:05.182Z,92253.84
2023-03-07T07:28:37.595Z,92253.00
2023-03-07T07:30:09.658Z,92253.09
2023-03-07T07:31:44.394Z,92255.34
2023-03-07T07:33:17.611Z,92249.84
2023-03-07T07:34:49.450Z,92249.59
2023-03-07T07:36:22.831Z,92257.75
2023-03-07T07:37:54.551Z,92259.09
2023-03-07T07:39:26.214Z,92255.06
2023-03-07T07:40:58.192Z,92251.88
2023-03-07T07:42:32.207Z,92260.78
2023-03-07T07:44:04.225Z,92264.13
2023-03-07T07:45:37.287Z,92259.06
2023-03-07T07:47:09.169Z,92260.53
2023-03-07T07:48:40.795Z,92260.66
2023-03-07T07:50:14.273Z,92264.75
2023-03-07T07:51:45.976Z,92254.88
2023-03-07T07:53:17.970Z,92258.31
2023-03-07T07:54:49.688Z,92257.03
2023-03-07T07:56:21.298Z,92259.16
2023-03-07T07:57:52.886Z,92260.69
2023-03-07T07:59:24.458Z,92273.31
2023-03-07T08:00:56.349Z,92260.56
2023-03-07T08:02:28.984Z,92264.84
2023-03-07T08:04:00.765Z,92255.06
2023-03-07T08:05:32.652Z,92262.47
2023-03-07T08:07:04.343Z,92255.06
2023-03-07T08:08:36.146Z,92252.03
2023-03-07T08:10:08.486Z,92263.91
2023-03-07T08:11:40.062Z,92266.75
2023-03-07T08:13:18.304Z,92274.44
2023-03-07T08:14:49.918Z,92268.97
2023-03-07T08:16:22.680Z,92262.91
2023-03-07T08:17:54.516Z,92262.78
2023-03-07T08:19:26.146Z,92262.13
2023-03-07T08:20:59.526Z,92259.94
2023-03-07T08:22:31.273Z,92253.19
2023-03-07T08:24:04.464Z,92273.47
2023-03-07T08:25:36.673Z,92260.78
2023-03-07T08:27:11.470Z,92266.72
2023-03-07T08:28:46.141Z,92262.56
2023-03-07T08:30:18.886Z,92254.78
2023-03-07T08:31:52.069Z,92253.91
2023-03-07T08:33:23.738Z,92261.69
2023-03-07T08:34:55.327Z,92252.94
2023-03-07T08:36:27.135Z,92253.38
2023-03-07T08:37:59.998Z,92260.34
2023-03-07T08:39:31.867Z,92259.78
2023-03-07T08:41:04.726Z,92264.72
2023-03-07T08:42:36.809Z,92268.09
2023-03-07T08:44:11.401Z,92252.16
2023-03-07T08:45:43.008Z,92263.03
2023-03-07T08:47:14.558Z,92266.78
2023-03-07T08:48:46.129Z,92267.44
2023-03-07T08:50:17.848Z,92255.38
2023-03-07T08:51:49.574Z,92267.31
2023-03-07T08:53:21.931Z,92261.59
2023-03-07T08:54:53.620Z,92271.59
2023-03-07T08:56:25.770Z,92255.72
2023-03-07T08:57:57.598Z,92264.41
2023-03-07T08:59:29.250Z,92256.97
2023-03-07T09:01:00.923Z,92259.78
2023-03-07T09:02:33.109Z,92257.75
2023-03-07T09:04:05.375Z,92265.16
2023-03-07T09:05:37.795Z,92264.22
2023-03-07T09:07:09.842Z,92260.31
2023-03-07T09:08:41.689Z,92259.41
2023-03-07T09:10:14.467Z,92251.75
2023-03-07T09:11:46.354Z,92253.00
2023-03-07T09:13:18.657Z,92246.50
2023-03-07T09:15:09.476Z,92263.13
2023-03-07T09:16:41.713Z,92256.88
2023-03-07T09:18:14.048Z,92255.19
2023-03-07T09:19:45.785Z,92252.81
2023-03-07T09:21:18.156Z,92253.03
2023-03-07T09:22:51.745Z,92261.81
2023-03-07T09:24:23.483Z,92246.50
2023-03-07T09:25:55.251Z,92258.44
2023-03-07T09:27:26.826Z,92255.06
2023-03-07T09:28:58.352Z,92263.38
2023-03-07T09:30:29.875Z,92245.97
2023-03-07T09:32:03.145Z,92243.47
2023-03-07T09:33:35.246Z,92250.13
2023-03-07T09:35:07.389Z,92248.94
2023-03-07T09:36:39.618Z,92239.50
2023-03-07T09:38:11.597Z,92235.53
2023-03-07T09:39:44.120Z,92232.69
2023-03-07T09:41:19.026Z,92236.81
2023-03-07T09:42:58.205Z,92229.25
2023-03-07T09:44:48.752Z,92229.78
2023-03-07T09:46:25.984Z,92238.22
2023-03-07T09:48:18.074Z,92240.03
2023-03-07T09:49:50.295Z,92236.69
2023-03-07T09:51:25.795Z,92231.56
2023-03-07T09:52:59.493Z,92240.50
2023-03-07T09:54:38.808Z,92240.13
2023-03-07T09:56:46.206Z,92237.41
2023-03-07T09:58:19.297Z,92226.28
2023-03-07T09:59:53.817Z,92229.31
2023-03-07T10:01:26.485Z,92221.28
2023-03-07T10:03:08.154Z,92225.03
2023-03-07T10:04:51.979Z,92216.19
2023-03-07T10:06:29.218Z,92208.47
2023-03-07T10:08:01.198Z,92209.09
2023-03-07T10:09:33.414Z,92213.63
2023-03-07T10:11:18.683Z,92213.63
2023-03-07T10:12:50.451Z,92220.00
2023-03-07T10:14:41.243Z,92211.88
2023-03-07T10:16:16.428Z,92204.16
2023-03-07T10:18:06.149Z,92209.63
2023-03-07T10:19:49.630Z,92216.69
2023-03-07T10:21:27.209Z,92206.56
2023-03-07T10:23:29.235Z,92204.09
2023-03-07T10:25:15.133Z,92208.47
2023-03-07T10:26:50.089Z,92202.63
2023-03-07T10:28:25.982Z,92200.09
2023-03-07T10:29:58.763Z,92204.25
2023-03-07T10:31:31.036Z,92200.69
2023-03-07T10:33:02.726Z,92198.53
2023-03-07T10:34:34.479Z,92183.72
2023-03-07T10:36:22.208Z,92187.28
2023-03-07T10:37:55.573Z,92189.72
2023-03-07T10:39:27.657Z,92179.94
2023-03-07T10:41:25.810Z,92187.56
2023-03-07T10:42:57.660Z,92177.16
2023-03-07T10:44:31.520Z,92168.53
2023-03-07T10:46:23.595Z,92184.22
2023-03-07T10:47:59.112Z,92172.22
2023-03-07T10:49:38.025Z,92164.88
2023-03-07T10:51:18.780Z,92162.41
2023-03-07T10:52:53.775Z,92169.19
2023-03-07T10:54:30.101Z,92153.63
2023-03-07T10:56:17.837Z,92158.91
2023-03-07T10:57:49.463Z,92153.06
2023-03-07T10:59:24.717Z,92149.91
2023-03-07T11:01:00.481Z,92147.31
2023-03-07T11:02:41.262Z,92149.34
2023-03-07T11:04:22.457Z,92145.63
2023-03-07T11:05:54.233Z,92137.94
2023-03-07T11:07:32.475Z,92133.53
2023-03-07T11:09:13.530Z,92129.47
2023-03-07T11:10:45.200Z,92131.47
2023-03-07T11:12:20.287Z,92140.59
2023-03-07T11:14:12.768Z,92127.19
2023-03-07T11:15:46.112Z,92135.88
2023-03-07T11:17:21.363Z,92123.22
2023-03-07T11:18:52.942Z,92114.66
2023-03-07T11:20:25.792Z,92117.56
2023-03-07T11:21:57.707Z,92112.66
2023-03-07T11:23:32.301Z,92105.16
2023-03-07T11:25:09.617Z,92099.31
2023-03-07T11:26:42.162Z,92104.59
2023-03-07T11:28:31.049Z,92096.91
2023-03-07T11:30:06.614Z,92100.09
2023-03-07T11:31:44.444Z,92103.84
2023-03-07T11:33:18.320Z,92089.69
2023-03-07T11:34:53.873Z,92085.63
2023-03-07T11:36:28.450Z,92108.25
2023-03-07T11:38:02.681Z,92102.81
2023-03-07T11:39:41.286Z,92093.03
2023-03-07T11:41:32.728Z,92098.97
2023-03-07T11:43:19.680Z,92092.75
2023-03-07T11:44:51.719Z,92089.19
2023-03-07T11:46:26.923Z,92087.50
2023-03-07T11:47:58.544Z,92090.47
2023-03-07T11:49:30.925Z,92089.50
2023-03-07T11:51:04.793Z,92096.84
2023-03-07T11:52:49.954Z,92075.69
2023-03-07T11:54:24.911Z,92083.06
2023-03-07T11:56:15.832Z,92084.72
2023-03-07T11:57:53.575Z,92089.41
2023-03-07T11:59:29.461Z,92091.50
2023-03-07T12:01:06.969Z,92088.84
2023-03-07T12:02:49.644Z,92087.47
2023-03-07T12:04:26.277Z,92099.97
2023-03-07T12:05:57.930Z,92095.25
2023-03-07T12:07:30.993Z,92096.31
2023-03-07T12:09:13.660Z,92093.16
2023-03-07T12:11:01.737Z,92103.50
2023-03-07T12:12:51.940Z,92096.00
2023-03-07T12:14:27.012Z,92090.81
2023-03-07T12:16:15.089Z,92088.25
2023-03-07T12:17:50.187Z,92087.09
2023-03-07T12:19:28.426Z,92086.56
2023-03-07T12:21:13.600Z,92081.38
2023-03-07T12:23:04.814Z,92077.69
2023-03-07T12:24:38.318Z,92080.31
2023-03-07T12:26:19.245Z,92073.34
2023-03-07T12:28:03.425Z,92079.00
2023-03-07T12:29:52.095Z,92080.56
2023-03-07T12:31:27.974Z,92072.78
2023-03-07T12:32:59.874Z,92065.41
2023-03-07T12:34:42.550Z,92068.53
2023-03-07T12:36:19.819Z,92055.34
2023-03-07T12:37:59.422Z,92051.94
2023-03-07T12:39:34.975Z,92065.22
2023-03-07T12:41:44.958Z,92054.91
2023-03-07T12:43:21.150Z,92047.78
2023-03-07T12:45:08.187Z,92052.19
2023-03-07T12:46:46.029Z,92049.06
2023-03-07T12:48:26.558Z,92061.47
2023-03-07T12:50:17.788Z,92066.16
2023-03-07T12:51:49.977Z,92063.84
2023-03-07T12:53:30.341Z,92067.13
2023-03-07T12:55:05.224Z,92064.72
2023-03-07T12:56:55.817Z,92062.00
2023-03-07T12:58:46.134Z,92059.22
2023-03-07T13:00:18.396Z,92056.41
2023-03-07T13:01:54.671Z,92060.00
2023-03-07T13:03:46.808Z,92050.31
2023-03-07T13:05:19.665Z,92054.16
2023-03-07T13:06:51.393Z,92060.69
2023-03-07T13:08:23.853Z,92061.75
2023-03-07T13:09:56.465Z,92064.81
2023-03-07T13:11:28.944Z,92064.38
2023-03-07T13:13:08.596Z,92060.34
2023-03-07T13:14:44.583Z,92068.72
2023-03-07T13:16:32.263Z,92064.28
2023-03-07T13:18:04.630Z,92064.88
2023-03-07T13:19:39.526Z,92059.13
2023-03-07T13:21:12.827Z,92052.25
2023-03-07T13:22:44.983Z,92044.44
2023-03-07T13:24:34.231Z,92055.34
2023-03-07T13:26:06.863Z,92056.19
2023-03-07T13:27:41.924Z,92051.88
2023-03-07T13:29:14.351Z,92057.81
2023-03-07T13:31:06.018Z,92058.84
2023-03-07T13:32:54.581Z,92063.91
2023-03-07T13:34:44.282Z,92055.47
2023-03-07T13:36:32.273Z,92058.63
2023-03-07T13:38:22.555Z,92053.88
2023-03-07T13:40:02.881Z,92052.41
2023-03-07T13:41:47.622Z,92061.72
2023-03-07T13:43:19.656Z,92056.03
2023-03-07T13:44:51.374Z,92085.97
2023-03-07T13:46:54.663Z,92068.56
2023-03-07T13:48:30.409Z,92076.81
2023-03-07T13:50:02.468Z,92066.78
2023-03-07T13:51:34.170Z,92063.41
2023-03-07T13:53:13.653Z,92069.72
2023-03-07T13:54:45.897Z,92059.25
2023-03-07T13:56:17.788Z,92066.31
2023-03-07T13:57:50.357Z,92060.56
2023-03-07T13:59:24.764Z,92060.03
2023-03-07T14:00:58.683Z,92067.06
2023-03-07T14:02:30.854Z,92065.94
2023-03-07T14:04:02.668Z,92065.84
2023-03-07T14:05:34.704Z,92059.31
2023-03-07T14:07:15.412Z,92063.78
2023-03-07T14:08:48.091Z,92059.53
2023-03-07T14:10:26.686Z,92060.34
2023-03-07T14:11:58.325Z,92054.06
2023-03-07T14:13:42.129Z,92054.06
2023-03-07T14:15:30.017Z,92054.84
2023-03-07T14:17:24.083Z,92056.50
2023-03-07T14:19:04.662Z,92067.91
2023-03-07T14:20:41.339Z,92057.00
2023-03-07T14:22:20.484Z,92077.78
2023-03-07T14:23:54.787Z,92059.56
2023-03-07T14:25:27.136Z,92066.88
2023-03-07T14:26:59.761Z,92069.25
2023-03-07T14:28:31.282Z,92068.56
2023-03-07T14:30:03.436Z,92066.97
2023-03-07T14:31:38.790Z,92069.34
2023-03-07T14:33:15.134Z,92065.13
2023-03-07T14:34:47.916Z,92073.34
2023-03-07T14:36:23.343Z,92064.44
2023-03-07T14:37:54.910Z,92068.09
2023-03-07T14:39:30.735Z,92071.06
2023-03-07T14:41:05.355Z,92073.84
2023-03-07T14:42:52.914Z,92083.72
2023-03-07T14:44:35.027Z,92084.16
2023-03-07T14:46:11.181Z,92074.03
2023-03-07T14:47:43.128Z,92074.13
2023-03-07T14:49:15.409Z,92075.75
2023-03-07T14:50:47.789Z,92083.63
2023-03-07T14:52:30.504Z,92079.00
2023-03-07T14:54:07.408Z,92080.31
2023-03-07T14:55:39.713Z,92077.06
2023-03-07T14:57:14.252Z,92084.94
2023-03-07T14:58:47.280Z,92081.16
2023-03-07T15:00:23.314Z,92077.16
2023-03-07T15:01:55.802Z,92076.03
2023-03-07T15:03:27.645Z,92081.69
2023-03-07T15:05:12.835Z,92075.88
2023-03-07T15:06:45.302Z,92073.06
2023-03-07T15:08:18.707Z,92063.38
2023-03-07T15:09:50.660Z,92069.56
2023-03-07T15:11:34.510Z,92085.69
2023-03-07T15:13:07.393Z,92068.19
2023-03-07T15:14:42.248Z,92068.78
2023-03-07T15:16:18.951Z,92075.50
2023-03-07T15:17:50.881Z,92071.94
2023-03-07T15:19:22.744Z,92084.75
2023-03-07T15:20:55.340Z,92064.97
2023-03-07T15:22:30.001Z,92071.50
2023-03-07T15:24:05.501Z,92065.19
2023-03-07T15:25:39.013Z,92069.47
2023-03-07T15:27:12.381Z,92078.56
2023-03-07T15:28:43.993Z,92066.59
2023-03-07T15:30:25.487Z,92069.31
2023-03-07T15:32:04.227Z,92070.72
2023-03-07T15:33:36.213Z,92065.47
2023-03-07T15:35:08.045Z,92070.00
2023-03-07T15:36:39.911Z,92065.53
2023-03-07T15:38:15.876Z,92071.72
2023-03-07T15:40:04.422Z,92068.31
2023-03-07T15:41:36.390Z,92060.69
2023-03-07T15:43:17.701Z,92072.41
2023-03-07T15:44:55.345Z,92066.69
2023-03-07T15:46:28.318Z,92065.81
2023-03-07T15:48:09.013Z,92066.16
2023-03-07T15:49:43.763Z,92073.38
2023-03-07T15:51:16.027Z,92074.84
2023-03-07T15:52:50.761Z,92079.47
2023-03-07T15:54:39.515Z,92079.34
2023-03-07T15:56:36.303Z,92086.03
2023-03-07T15:58:12.378Z,92084.66
2023-03-07T15:59:50.954Z,92083.91
2023-03-07T16:01:26.269Z,92090.88
2023-03-07T16:03:16.423Z,92093.38
2023-03-07T16:04:49.148Z,92097.19
2023-03-07T16:06:40.013Z,92091.03
2023-03-07T16:08:13.207Z,92100.69
2023-03-07T16:09:46.060Z,92100.13
2023-03-07T16:11:17.863Z,92099.91
2023-03-07T16:12:49.596Z,92092.38
2023-03-07T16:14:39.402Z,92098.22
2023-03-07T16:16:14.035Z,92103.72
2023-03-07T16:17:45.926Z,92100.13
2023-03-07T16:19:17.571Z,92101.72
2023-03-07T16:20:49.367Z,92101.81
2023-03-07T16:22:21.395Z,92109.56
2023-03-07T16:23:52.978Z,92106.06
2023-03-07T16:25:24.604Z,92105.28
2023-03-07T16:26:56.188Z,92111.47
2023-03-07T16:28:27.905Z,92118.34
2023-03-07T16:29:59.637Z,92110.44
2023-03-07T16:31:31.655Z,92114.41
2023-03-07T16:33:03.570Z,92117.97
2023-03-07T16:34:35.310Z,92119.88
2023-03-07T16:36:07.102Z,92115.28
2023-03-07T16:37:38.704Z,92121.22
2023-03-07T16:39:10.765Z,92118.72
2023-03-07T16:40:43.577Z,92118.63
2023-03-07T16:42:20.250Z,92117.03
2023-03-07T16:43:55.188Z,92118.63
2023-03-07T16:45:27.659Z,92114.47
2023-03-07T16:47:03.826Z,92123.22
2023-03-07T16:48:36.308Z,92120.72
2023-03-07T16:50:17.252Z,92120.41
2023-03-07T16:52:04.603Z,92133.41
2023-03-07T16:53:37.654Z,92123.75
2023-03-07T16:55:11.415Z,92122.19
2023-03-07T16:56:44.920Z,92124.66
2023-03-07T16:58:20.943Z,92129.38
2023-03-07T16:59:52.549Z,92133.19
2023-03-07T17:01:24.178Z,92126.91
2023-03-07T17:02:57.339Z,92128.34
2023-03-07T17:04:28.985Z,92131.72
2023-03-07T17:06:01.365Z,92132.06
2023-03-07T17:07:32.989Z,92135.09
2023-03-07T17:09:05.179Z,92134.50
2023-03-07T17:10:37.635Z,92134.16
2023-03-07T17:12:09.825Z,92139.31
2023-03-07T17:13:41.787Z,92139.97
2023-03-07T17:15:20.088Z,92137.50
2023-03-07T17:16:51.665Z,92130.75
2023-03-07T17:18:23.427Z,92134.31
2023-03-07T17:19:55.200Z,92140.69
2023-03-07T17:21:27.186Z,92132.84
2023-03-07T17:22:59.179Z,92137.56
2023-03-07T17:24:31.319Z,92141.22
2023-03-07T17:26:02.960Z,92145.38
2023-03-07T17:27:35.172Z,92144.38
2023-03-07T17:29:08.508Z,92136.78
2023-03-07T17:30:43.211Z,92139.00
2023-03-07T17:32:15.167Z,92148.84
2023-03-07T17:33:46.853Z,92141.31
2023-03-07T17:35:18.590Z,92149.13
2023-03-07T17:36:50.227Z,92149.66
2023-03-07T17:38:21.921Z,92144.03
2023-03-07T17:39:53.560Z,92152.22
2023-03-07T17:41:25.369Z,92146.84
2023-03-07T17:42:59.531Z,92149.66
2023-03-07T17:44:31.290Z,92147.91
2023-03-07T17:46:07.565Z,92154.97
2023-03-07T17:47:39.370Z,92153.31
2023-03-07T17:49:11.316Z,92154.88
2023-03-07T17:50:43.298Z,92150.75
2023-03-07T17:52:15.028Z,92157.13
2023-03-07T17:53:46.698Z,92157.47
2023-03-07T17:55:18.468Z,92158.56
2023-03-07T17:56:50.198Z,92159.88
2023-03-07T17:58:21.824Z,92155.69
2023-03-07T17:59:53.837Z,92153.53
2023-03-07T18:01:25.580Z,92160.53
2023-03-07T18:02:57.500Z,92160.94
2023-03-07T18:04:31.523Z,92162.91
2023-03-07T18:06:03.348Z,92158.63
2023-03-07T18:07:35.700Z,92161.47
2023-03-07T18:09:07.560Z,92164.72
2023-03-07T18:10:39.240Z,92160.94
2023-03-07T18:12:11.248Z,92166.84
2023-03-07T18:13:43.200Z,92169.72
2023-03-07T18:15:15.630Z,92170.38
2023-03-07T18:16:47.213Z,92172.78
2023-03-07T18:18:19.203Z,92169.94
2023-03-07T18:19:51.474Z,92169.59
2023-03-07T18:21:23.623Z,92177.66
2023-03-07T18:22:55.354Z,92172.78
2023-03-07T18:24:28.172Z,92173.72
2023-03-07T18:26:00.358Z,92173.50
2023-03-07T18:27:31.990Z,92165.91
2023-03-07T18:29:06.833Z,92173.25
2023-03-07T18:30:38.518Z,92166.00
2023-03-07T18:32:10.349Z,92176.00
2023-03-07T18:33:42.071Z,92174.59
2023-03-07T18:35:15.586Z,92177.63
2023-03-07T18:36:51.752Z,92181.75
2023-03-07T18:38:23.677Z,92186.94
2023-03-07T18:39:55.356Z,92184.41
2023-03-07T18:41:27.122Z,92185.09
2023-03-07T18:43:00.598Z,92174.50
2023-03-07T18:44:32.409Z,92190.94
2023-03-07T18:46:07.221Z,92188.31
2023-03-07T18:47:38.851Z,92188.50
2023-03-07T18:49:10.579Z,92186.91
2023-03-07T18:50:42.902Z,92202.06
2023-03-07T18:52:14.418Z,92190.53
2023-03-07T18:53:46.232Z,92184.34
2023-03-07T18:55:18.344Z,92185.81
2023-03-07T18:56:50.235Z,92183.28
2023-03-07T18:58:22.013Z,92182.69
2023-03-07T18:59:53.902Z,92185.22